Time;durP1;ratioP1;P1;durP2;ratioP2;P2;SDS_P1;SDS_P2;PMS_P1;PMS_P2;Temp;Humidity;BMP_temperature;BMP_pressure;BME280_temperature;BME280_humidity;BME280_pressure;Samples;Min_cycle;Max_cycle;Signal;HPM_P1;HPM_P2
2023/11/13 00:01:12;;;;;;;236.57;50.07;;;;;;;;;;4931947;29;20075;-67
2023/11/13 00:03:37;;;;;;;866.40;63.93;;;;;;;;;;4927118;29;20552;-67
2023/11/13 00:06:03;;;;;;;623.33;56.40;;;;;;;;;;4926983;29;20038;-67
2023/11/13 00:08:28;;;;;;;302.37;53.53;;;;;;;;;;4927254;29;20023;-67
2023/11/13 00:10:54;;;;;;;278.13;51.93;;;;;;;;;;4927054;29;20064;-67
2023/11/13 00:13:19;;;;;;;223.53;51.07;;;;;;;;;;4926415;29;20035;-68
2023/11/13 00:15:44;;;;;;;219.13;49.93;;;;;;;;;;4928148;29;20256;-67
2023/11/13 00:18:10;;;;;;;221.03;50.80;;;;;;;;;;4927361;29;20059;-67
2023/11/13 00:20:36;;;;;;;219.20;47.90;;;;;;;;;;4927006;29;20179;-67
2023/11/13 00:23:02;;;;;;;252.93;51.00;;;;;;;;;;4927921;29;20032;-67
2023/11/13 00:25:27;;;;;;;234.30;49.47;;;;;;;;;;4927009;29;20044;-65
2023/11/13 00:27:52;;;;;;;225.17;51.47;;;;;;;;;;4926798;29;20166;-65
2023/11/13 00:30:17;;;;;;;263.13;49.43;;;;;;;;;;4927261;29;20024;-67
2023/11/13 00:32:42;;;;;;;246.83;51.27;;;;;;;;;;4927747;29;20020;-65
2023/11/13 00:35:08;;;;;;;236.13;50.30;;;;;;;;;;4926981;29;20027;-66
2023/11/13 00:37:33;;;;;;;230.77;50.03;;;;;;;;;;4926656;29;20086;-66
2023/11/13 00:39:58;;;;;;;227.80;49.93;;;;;;;;;;4926922;29;20075;-66
2023/11/13 00:42:24;;;;;;;213.20;48.63;;;;;;;;;;4926983;29;20055;-65
2023/11/13 00:44:49;;;;;;;204.10;50.53;;;;;;;;;;4926385;29;20028;-66
2023/11/13 00:47:14;;;;;;;219.83;48.63;;;;;;;;;;4927455;29;20442;-65
2023/11/13 00:49:39;;;;;;;235.03;49.40;;;;;;;;;;4926495;29;20425;-65
2023/11/13 00:52:05;;;;;;;210.53;49.73;;;;;;;;;;4927012;29;20548;-65
2023/11/13 00:54:30;;;;;;;222.33;52.17;;;;;;;;;;4926758;29;20497;-64
2023/11/13 00:56:56;;;;;;;203.70;49.50;;;;;;;;;;4926599;29;20054;-66
2023/11/13 00:59:21;;;;;;;201.83;50.07;;;;;;;;;;4927559;29;20464;-66
2023/11/13 01:01:46;;;;;;;211.10;49.63;;;;;;;;;;4926969;29;20086;-65
2023/11/13 01:04:12;;;;;;;206.80;49.53;;;;;;;;;;4927282;29;20111;-66
2023/11/13 01:06:37;;;;;;;208.37;49.30;;;;;;;;;;4926718;29;20023;-65
2023/11/13 01:09:03;;;;;;;223.70;49.13;;;;;;;;;;4926582;29;20024;-64
2023/11/13 01:11:28;;;;;;;215.80;49.47;;;;;;;;;;4926980;29;20126;-65
2023/11/13 01:13:54;;;;;;;225.37;50.47;;;;;;;;;;4926773;29;20461;-65
2023/11/13 01:16:19;;;;;;;221.90;51.07;;;;;;;;;;4926740;29;20031;-65
2023/11/13 01:18:47;;;;;;;229.30;52.53;;;;;;;;;;4925005;29;20046;-67
2023/11/13 01:21:12;;;;;;;242.37;55.60;;;;;;;;;;4926494;29;20028;-67
2023/11/13 01:23:39;;;;;;;237.27;52.80;;;;;;;;;;4927184;29;20023;-65
2023/11/13 01:26:04;;;;;;;214.93;49.23;;;;;;;;;;4932019;29;20035;-65
2023/11/13 01:28:29;;;;;;;241.10;52.83;;;;;;;;;;4930633;29;20029;-67
2023/11/13 01:30:55;;;;;;;221.13;51.40;;;;;;;;;;4930529;29;20103;-65
2023/11/13 01:33:21;;;;;;;206.57;48.47;;;;;;;;;;4930464;29;20019;-65
2023/11/13 01:35:47;;;;;;;211.93;48.07;;;;;;;;;;4929868;29;20042;-67
2023/11/13 01:38:12;;;;;;;214.17;48.53;;;;;;;;;;4929484;29;20110;-67
2023/11/13 01:40:41;;;;;;;216.00;48.53;;;;;;;;;;4929483;29;20107;-67
2023/11/13 01:43:14;;;;;;;217.30;47.30;;;;;;;;;;4929784;29;20023;-68
2023/11/13 01:45:39;;;;;;;216.53;46.23;;;;;;;;;;4929719;29;20047;-67
2023/11/13 01:48:05;;;;;;;212.47;47.20;;;;;;;;;;4929562;29;20362;-68
2023/11/13 01:50:30;;;;;;;199.27;45.93;;;;;;;;;;4929815;29;20062;-68
2023/11/13 01:52:55;;;;;;;202.33;45.03;;;;;;;;;;4926187;29;20032;-68
2023/11/13 01:55:21;;;;;;;193.27;43.00;;;;;;;;;;4929716;29;20051;-67
2023/11/13 01:57:46;;;;;;;179.30;43.27;;;;;;;;;;4929655;29;20024;-68
2023/11/13 02:00:11;;;;;;;192.90;42.73;;;;;;;;;;4929582;29;20506;-68
2023/11/13 02:02:37;;;;;;;188.17;41.63;;;;;;;;;;4931239;29;20057;-68
2023/11/13 02:05:02;;;;;;;182.73;44.10;;;;;;;;;;4929013;29;20322;-67
2023/11/13 02:07:27;;;;;;;192.63;41.87;;;;;;;;;;4929303;29;20128;-68
2023/11/13 02:09:53;;;;;;;181.10;42.57;;;;;;;;;;4928922;29;20373;-68
2023/11/13 02:12:19;;;;;;;182.60;39.20;;;;;;;;;;4929488;29;20277;-67
2023/11/13 02:14:44;;;;;;;181.43;42.27;;;;;;;;;;4928950;29;20024;-67
2023/11/13 02:17:10;;;;;;;179.47;40.50;;;;;;;;;;4930042;29;20094;-67
2023/11/13 02:19:36;;;;;;;182.20;41.40;;;;;;;;;;4929102;29;20042;-68
2023/11/13 02:22:04;;;;;;;179.80;40.53;;;;;;;;;;4928948;29;20044;-68
2023/11/13 02:24:29;;;;;;;182.93;40.37;;;;;;;;;;4928975;29;20058;-68
2023/11/13 02:26:54;;;;;;;175.90;39.17;;;;;;;;;;4928979;29;20063;-67
2023/11/13 02:29:20;;;;;;;173.23;38.07;;;;;;;;;;4928972;29;20027;-67
2023/11/13 02:31:51;;;;;;;165.73;36.60;;;;;;;;;;4929064;29;20036;-68
2023/11/13 02:34:16;;;;;;;159.63;38.15;;;;;;;;;;4929110;29;20543;-67
2023/11/13 02:36:42;;;;;;;156.83;36.90;;;;;;;;;;4927795;29;20031;-67
2023/11/13 02:39:08;;;;;;;164.63;36.90;;;;;;;;;;4911816;29;20035;-68
2023/11/13 02:41:33;;;;;;;169.83;36.43;;;;;;;;;;4929692;29;20543;-68
2023/11/13 02:43:59;;;;;;;154.33;36.57;;;;;;;;;;4929567;29;20028;-64
2023/11/13 02:46:24;;;;;;;165.97;37.00;;;;;;;;;;4928927;29;20024;-67
2023/11/13 02:48:49;;;;;;;154.77;37.13;;;;;;;;;;4928922;29;20023;-65
2023/11/13 02:51:15;;;;;;;150.37;34.27;;;;;;;;;;4929582;29;20027;-66
2023/11/13 02:53:41;;;;;;;163.37;37.23;;;;;;;;;;4929296;29;20095;-66
2023/11/13 02:56:06;;;;;;;147.17;33.80;;;;;;;;;;4928957;29;20032;-65
2023/11/13 02:58:31;;;;;;;147.90;34.00;;;;;;;;;;4929380;29;20035;-64
2023/11/13 03:00:56;;;;;;;158.53;35.50;;;;;;;;;;4927867;29;20140;-64
2023/11/13 03:03:25;;;;;;;175.00;36.27;;;;;;;;;;4928946;29;20024;-66
2023/11/13 03:05:50;;;;;;;165.97;35.77;;;;;;;;;;4929076;29;20028;-65
2023/11/13 03:08:15;;;;;;;155.03;33.50;;;;;;;;;;4928686;29;20031;-65
2023/11/13 03:10:41;;;;;;;158.60;35.70;;;;;;;;;;4928870;29;20032;-65
2023/11/13 03:13:06;;;;;;;162.43;33.87;;;;;;;;;;4928348;29;20043;-64
2023/11/13 03:15:31;;;;;;;164.53;34.67;;;;;;;;;;4928363;29;20499;-67
2023/11/13 03:17:56;;;;;;;156.60;34.97;;;;;;;;;;4927308;29;20027;-65
2023/11/13 03:20:23;;;;;;;171.03;33.83;;;;;;;;;;4929826;29;20023;-66
2023/11/13 03:22:48;;;;;;;159.43;33.87;;;;;;;;;;4930344;29;20110;-65
2023/11/13 03:25:14;;;;;;;143.00;33.63;;;;;;;;;;4928678;29;20493;-65
2023/11/13 03:27:39;;;;;;;158.27;33.00;;;;;;;;;;4928185;29;20212;-65
2023/11/13 03:30:05;;;;;;;161.27;34.03;;;;;;;;;;4928409;29;20019;-65
2023/11/13 03:32:30;;;;;;;146.83;32.20;;;;;;;;;;4927995;29;20403;-66
2023/11/13 03:34:56;;;;;;;139.50;34.00;;;;;;;;;;4927631;29;20031;-65
2023/11/13 03:37:21;;;;;;;156.70;33.60;;;;;;;;;;4927771;29;20106;-64
2023/11/13 03:39:47;;;;;;;158.30;34.97;;;;;;;;;;4928095;29;20103;-64
2023/11/13 03:42:12;;;;;;;162.33;35.07;;;;;;;;;;4927770;29;20075;-65
2023/11/13 03:44:38;;;;;;;157.53;34.60;;;;;;;;;;4934475;29;20054;-64
2023/11/13 03:47:03;;;;;;;168.30;36.23;;;;;;;;;;4932462;29;20036;-64
2023/11/13 03:49:28;;;;;;;152.27;34.80;;;;;;;;;;4939011;29;20020;-64
2023/11/13 03:51:54;;;;;;;157.43;36.57;;;;;;;;;;4928422;29;20268;-65
2023/11/13 03:54:20;;;;;;;159.57;35.87;;;;;;;;;;4931081;29;20031;-67
2023/11/13 03:56:45;;;;;;;151.60;34.50;;;;;;;;;;4939166;29;20035;-67
2023/11/13 03:59:10;;;;;;;166.87;37.30;;;;;;;;;;4936289;29;20031;-67
2023/11/13 04:01:36;;;;;;;161.97;37.47;;;;;;;;;;4929556;29;20046;-67
2023/11/13 04:04:01;;;;;;;163.63;37.60;;;;;;;;;;4926892;29;20408;-67
2023/11/13 04:06:26;;;;;;;165.40;38.23;;;;;;;;;;4938499;29;20119;-67
2023/11/13 04:08:51;;;;;;;155.70;37.50;;;;;;;;;;4927285;29;20079;-67
2023/11/13 04:11:17;;;;;;;168.47;37.93;;;;;;;;;;4934296;29;20516;-67
2023/11/13 04:13:44;;;;;;;156.13;36.03;;;;;;;;;;4928807;29;20499;-67
2023/11/13 04:16:09;;;;;;;149.83;34.93;;;;;;;;;;4934623;29;20102;-67
2023/11/13 04:18:34;;;;;;;150.67;33.90;;;;;;;;;;4938378;29;20027;-68
2023/11/13 04:21:00;;;;;;;127.00;30.73;;;;;;;;;;4937179;29;20023;-67
2023/11/13 04:23:25;;;;;;;134.47;30.50;;;;;;;;;;4929606;29;20031;-68
2023/11/13 04:25:51;;;;;;;127.27;30.60;;;;;;;;;;4935657;29;20035;-68
2023/11/13 04:28:18;;;;;;;127.13;30.47;;;;;;;;;;4936927;29;20019;-67
2023/11/13 04:30:43;;;;;;;124.37;28.90;;;;;;;;;;4940346;29;20432;-67
2023/11/13 04:33:08;;;;;;;123.80;27.67;;;;;;;;;;4930191;29;20185;-67
2023/11/13 04:35:34;;;;;;;119.57;28.60;;;;;;;;;;4929976;29;20066;-68
2023/11/13 04:37:59;;;;;;;130.77;29.43;;;;;;;;;;4933510;29;20286;-68
2023/11/13 04:40:26;;;;;;;121.70;28.60;;;;;;;;;;4930545;29;20062;-68
2023/11/13 04:42:51;;;;;;;123.00;29.73;;;;;;;;;;4934974;29;20047;-68
2023/11/13 04:45:16;;;;;;;117.27;30.63;;;;;;;;;;4934074;29;20031;-68
2023/11/13 04:47:42;;;;;;;120.27;28.37;;;;;;;;;;4929898;29;20031;-68
2023/11/13 04:50:08;;;;;;;116.33;28.37;;;;;;;;;;4932958;29;20035;-67
2023/11/13 04:52:33;;;;;;;115.50;28.10;;;;;;;;;;4931409;29;20440;-68
2023/11/13 04:54:58;;;;;;;115.77;27.23;;;;;;;;;;4926716;29;20038;-67
2023/11/13 04:57:24;;;;;;;118.43;28.87;;;;;;;;;;4929078;29;20028;-68
2023/11/13 04:59:49;;;;;;;114.50;27.47;;;;;;;;;;4935261;29;20035;-68
2023/11/13 05:02:15;;;;;;;113.80;28.60;;;;;;;;;;4932224;29;20476;-68
2023/11/13 05:04:41;;;;;;;104.97;27.47;;;;;;;;;;4931231;29;20488;-68
2023/11/13 05:07:07;;;;;;;121.73;28.43;;;;;;;;;;4931105;29;20464;-68
2023/11/13 05:09:32;;;;;;;98.77;23.87;;;;;;;;;;4929447;29;20094;-68
2023/11/13 05:11:58;;;;;;;108.07;27.50;;;;;;;;;;4933116;29;20028;-67
2023/11/13 05:14:23;;;;;;;90.70;23.10;;;;;;;;;;4934934;29;20115;-68
2023/11/13 05:16:48;;;;;;;116.73;28.37;;;;;;;;;;4944754;29;20066;-69
2023/11/13 05:19:14;;;;;;;107.17;25.33;;;;;;;;;;4931772;29;20415;-68
2023/11/13 05:21:40;;;;;;;111.23;26.77;;;;;;;;;;4941832;29;20539;-68
2023/11/13 05:24:06;;;;;;;94.90;24.67;;;;;;;;;;4947833;29;20027;-68
2023/11/13 05:26:31;;;;;;;99.20;26.17;;;;;;;;;;4932749;29;20576;-68
2023/11/13 05:28:57;;;;;;;108.40;27.20;;;;;;;;;;4937061;29;20035;-68
2023/11/13 05:31:22;;;;;;;106.90;25.70;;;;;;;;;;4920725;29;20041;-68
2023/11/13 05:33:47;;;;;;;101.73;24.27;;;;;;;;;;4918958;29;20032;-68
2023/11/13 05:36:13;;;;;;;99.60;24.40;;;;;;;;;;4936464;29;20432;-68
2023/11/13 05:38:42;;;;;;;95.40;24.43;;;;;;;;;;4935126;29;20111;-68
2023/11/13 05:41:07;;;;;;;99.53;25.20;;;;;;;;;;4929511;29;20122;-68
2023/11/13 05:43:32;;;;;;;108.40;26.87;;;;;;;;;;4931934;29;20123;-68
2023/11/13 05:45:57;;;;;;;102.23;24.70;;;;;;;;;;4935338;29;20027;-68
2023/11/13 05:48:23;;;;;;;92.47;23.77;;;;;;;;;;4937372;29;20106;-68
2023/11/13 05:50:48;;;;;;;102.03;24.70;;;;;;;;;;4938030;29;20039;-68
2023/11/13 05:53:13;;;;;;;96.77;22.90;;;;;;;;;;4937151;29;20067;-68
2023/11/13 05:55:39;;;;;;;93.33;23.40;;;;;;;;;;4934188;29;20045;-68
2023/11/13 05:58:04;;;;;;;100.27;23.97;;;;;;;;;;4944923;29;20118;-68
2023/11/13 06:00:30;;;;;;;96.60;23.17;;;;;;;;;;4935789;29;20027;-68
2023/11/13 06:02:55;;;;;;;100.20;26.10;;;;;;;;;;4928744;29;20059;-68
2023/11/13 06:05:21;;;;;;;90.20;21.47;;;;;;;;;;4912116;29;20769;-68
2023/11/13 06:07:46;;;;;;;92.33;23.37;;;;;;;;;;4935673;29;20020;-70
2023/11/13 06:10:11;;;;;;;87.70;22.93;;;;;;;;;;4937193;28;20089;-68
2023/11/13 06:12:39;;;;;;;86.67;21.97;;;;;;;;;;4932169;29;20031;-68
2023/11/13 06:15:04;;;;;;;80.13;20.40;;;;;;;;;;4939395;29;20066;-69
2023/11/13 06:17:30;;;;;;;77.37;19.30;;;;;;;;;;4934958;29;20035;-68
2023/11/13 06:19:55;;;;;;;80.53;20.77;;;;;;;;;;4929356;29;20027;-68
2023/11/13 06:22:21;;;;;;;73.90;19.60;;;;;;;;;;4930279;29;20109;-68
2023/11/13 06:24:46;;;;;;;65.60;18.10;;;;;;;;;;4928708;29;20028;-69
2023/11/13 06:27:11;;;;;;;76.13;19.47;;;;;;;;;;4929698;29;20449;-69
2023/11/13 06:29:37;;;;;;;73.83;19.60;;;;;;;;;;4944244;29;20035;-69
2023/11/13 06:32:02;;;;;;;77.40;19.63;;;;;;;;;;4934611;29;20059;-69
2023/11/13 06:34:28;;;;;;;80.00;22.87;;;;;;;;;;4941142;29;20089;-69
2023/11/13 06:36:53;;;;;;;80.07;24.00;;;;;;;;;;4933726;29;20035;-69
2023/11/13 06:39:18;;;;;;;76.83;22.27;;;;;;;;;;4945642;29;20178;-68
2023/11/13 06:41:48;;;;;;;57.90;15.67;;;;;;;;;;4934524;29;20036;-69
2023/11/13 06:44:14;;;;;;;65.33;17.27;;;;;;;;;;4930705;29;20420;-69
2023/11/13 06:46:39;;;;;;;20.90;7.07;;;;;;;;;;4937942;29;21827;-69
2023/11/13 06:49:06;;;;;;;40.07;11.70;;;;;;;;;;4948818;29;20030;-69
2023/11/13 06:51:31;;;;;;;56.10;16.20;;;;;;;;;;4936379;29;20098;-69
2023/11/13 06:53:57;;;;;;;47.57;13.90;;;;;;;;;;4932066;29;20039;-69
2023/11/13 06:56:22;;;;;;;50.70;15.33;;;;;;;;;;4928556;29;20027;-69
2023/11/13 06:58:49;;;;;;;41.33;13.57;;;;;;;;;;4928359;29;20104;-69
2023/11/13 07:01:14;;;;;;;51.60;15.37;;;;;;;;;;4928511;29;20648;-70
2023/11/13 07:03:40;;;;;;;49.17;15.27;;;;;;;;;;4928229;29;20050;-69
2023/11/13 07:06:10;;;;;;;52.13;15.17;;;;;;;;;;4928580;29;20137;-69
2023/11/13 07:08:35;;;;;;;61.00;16.53;;;;;;;;;;4928906;29;20468;-69
2023/11/13 07:11:01;;;;;;;48.67;16.27;;;;;;;;;;4934641;29;20035;-69
2023/11/13 07:13:26;;;;;;;67.27;18.50;;;;;;;;;;4924018;29;20043;-70
2023/11/13 07:15:52;;;;;;;64.10;18.23;;;;;;;;;;4931379;29;20103;-69
2023/11/13 07:18:18;;;;;;;73.30;18.23;;;;;;;;;;4933173;29;20022;-69
2023/11/13 07:20:43;;;;;;;76.63;19.93;;;;;;;;;;4928470;29;20480;-69
2023/11/13 07:23:16;;;;;;;61.73;17.40;;;;;;;;;;4943691;28;20019;-69
2023/11/13 07:25:41;;;;;;;57.90;16.33;;;;;;;;;;4926298;29;20020;-68
2023/11/13 07:28:07;;;;;;;58.57;17.67;;;;;;;;;;4933002;29;20027;-69
2023/11/13 07:30:33;;;;;;;58.30;17.47;;;;;;;;;;4938463;29;20038;-69
2023/11/13 07:32:58;;;;;;;59.37;17.47;;;;;;;;;;4946114;29;20019;-69
2023/11/13 07:35:23;;;;;;;56.87;16.57;;;;;;;;;;4947040;29;20055;-68
2023/11/13 07:37:49;;;;;;;55.80;16.20;;;;;;;;;;4939172;29;20078;-68
2023/11/13 07:40:14;;;;;;;60.07;17.30;;;;;;;;;;4940011;29;20019;-69
2023/11/13 07:42:40;;;;;;;53.57;14.57;;;;;;;;;;4941586;29;20125;-69
2023/11/13 07:45:06;;;;;;;44.23;11.60;;;;;;;;;;4947405;29;20047;-68
2023/11/13 07:47:31;;;;;;;56.57;15.90;;;;;;;;;;4945618;29;20024;-69
2023/11/13 07:49:57;;;;;;;41.57;12.53;;;;;;;;;;4946716;29;20019;-69
2023/11/13 07:52:22;;;;;;;42.23;13.73;;;;;;;;;;4939805;29;20618;-69
2023/11/13 07:54:47;;;;;;;39.13;12.33;;;;;;;;;;4941208;29;20180;-67
2023/11/13 07:57:13;;;;;;;39.33;12.23;;;;;;;;;;4944861;29;20042;-68
2023/11/13 07:59:38;;;;;;;33.03;11.17;;;;;;;;;;4947224;29;20082;-68
2023/11/13 08:02:04;;;;;;;36.63;11.87;;;;;;;;;;4943884;28;20035;-66
2023/11/13 08:04:29;;;;;;;38.77;12.63;;;;;;;;;;4941988;29;20023;-69
2023/11/13 08:06:54;;;;;;;33.83;11.17;;;;;;;;;;4946353;29;20163;-69
2023/11/13 08:09:20;;;;;;;39.93;13.27;;;;;;;;;;4946066;29;20047;-69
2023/11/13 08:11:45;;;;;;;44.83;13.30;;;;;;;;;;4942256;29;20027;-69
2023/11/13 08:14:12;;;;;;;27.97;10.97;;;;;;;;;;4938927;29;20031;-68
2023/11/13 08:16:38;;;;;;;32.73;10.93;;;;;;;;;;4946397;29;20027;-68
2023/11/13 08:19:03;;;;;;;33.67;11.87;;;;;;;;;;4945162;29;20035;-70
2023/11/13 08:21:31;;;;;;;29.90;10.73;;;;;;;;;;4946378;29;20038;-67
2023/11/13 08:23:56;;;;;;;30.77;10.53;;;;;;;;;;4941341;29;20521;-67
2023/11/13 08:26:27;;;;;;;26.67;7.90;;;;;;;;;;4931702;29;20107;-67
2023/11/13 08:29:01;;;;;;;25.20;8.93;;;;;;;;;;4947057;29;20384;-73
2023/11/13 08:31:27;;;;;;;34.50;11.50;;;;;;;;;;4946309;29;20031;-69
2023/11/13 08:33:52;;;;;;;29.77;9.70;;;;;;;;;;4945126;28;20031;-68
2023/11/13 08:36:21;;;;;;;25.90;8.20;;;;;;;;;;4936626;29;20027;-69
2023/11/13 08:38:47;;;;;;;26.17;8.43;;;;;;;;;;4932980;29;20023;-69
2023/11/13 08:41:13;;;;;;;26.63;9.57;;;;;;;;;;4938261;29;20039;-69
2023/11/13 08:43:38;;;;;;;25.83;9.17;;;;;;;;;;4945452;29;20491;-71
2023/11/13 08:46:04;;;;;;;34.50;11.30;;;;;;;;;;4941079;29;20098;-68
2023/11/13 08:48:29;;;;;;;23.07;9.23;;;;;;;;;;4945239;29;20105;-69
2023/11/13 08:50:59;;;;;;;20.60;7.47;;;;;;;;;;4946198;29;20079;-69
2023/11/13 08:53:24;;;;;;;15.27;6.20;;;;;;;;;;4942846;29;20035;-69
2023/11/13 08:55:49;;;;;;;20.43;8.37;;;;;;;;;;4934446;29;20277;-69
2023/11/13 08:58:14;;;;;;;17.80;6.10;;;;;;;;;;4926606;29;20245;-72
2023/11/13 09:00:43;;;;;;;26.93;10.20;;;;;;;;;;4927573;29;20465;-68
2023/11/13 09:03:09;;;;;;;28.00;10.07;;;;;;;;;;4927712;29;20425;-69
2023/11/13 09:05:34;;;;;;;28.80;10.50;;;;;;;;;;4928724;29;20027;-69
2023/11/13 09:08:02;;;;;;;23.47;7.17;;;;;;;;;;4946642;29;20094;-69
2023/11/13 09:10:28;;;;;;;27.47;10.87;;;;;;;;;;4942998;29;20110;-69
2023/11/13 09:12:59;;;;;;;26.67;9.93;;;;;;;;;;4932657;29;20070;-69
2023/11/13 09:15:25;;;;;;;30.52;10.35;;;;;;;;;;4946447;29;20035;-69
2023/11/13 09:17:54;;;;;;;33.03;12.10;;;;;;;;;;4939495;29;20122;-69
2023/11/13 09:20:19;;;;;;;40.93;12.97;;;;;;;;;;4942358;29;20539;-69
2023/11/13 09:22:45;;;;;;;36.57;12.97;;;;;;;;;;4946000;29;20023;-69
2023/11/13 09:25:14;;;;;;;36.10;12.40;;;;;;;;;;4946561;29;20030;-69
2023/11/13 09:27:46;;;;;;;34.00;11.43;;;;;;;;;;4928491;29;20034;-69
2023/11/13 09:30:12;;;;;;;42.23;14.20;;;;;;;;;;4922845;29;20123;-69
2023/11/13 09:32:46;;;;;;;36.63;12.43;;;;;;;;;;4937811;29;20443;-69
2023/11/13 09:35:18;;;;;;;29.40;10.63;;;;;;;;;;4944792;29;20103;-69
2023/11/13 09:37:47;;;;;;;33.97;11.73;;;;;;;;;;4935648;29;20023;-69
2023/11/13 09:40:14;;;;;;;34.30;11.77;;;;;;;;;;4936283;29;20031;-67
2023/11/13 09:42:40;;;;;;;32.33;12.13;;;;;;;;;;4941800;29;20949;-68
2023/11/13 09:45:06;;;;;;;25.47;9.37;;;;;;;;;;4945912;28;20380;-68
2023/11/13 09:47:33;;;;;;;37.93;13.53;;;;;;;;;;4948275;29;20098;-67
2023/11/13 09:50:01;;;;;;;32.10;12.53;;;;;;;;;;4942515;29;20019;-67
2023/11/13 09:52:27;;;;;;;35.57;12.07;;;;;;;;;;4946832;29;20031;-67
2023/11/13 09:54:54;;;;;;;38.10;14.50;;;;;;;;;;4949568;29;20078;-68
2023/11/13 09:57:20;;;;;;;38.63;14.40;;;;;;;;;;4947073;29;20350;-67
2023/11/13 09:59:46;;;;;;;34.17;11.30;;;;;;;;;;4937915;29;20034;-67
2023/11/13 10:02:14;;;;;;;42.53;14.20;;;;;;;;;;4944575;28;20122;-68
2023/11/13 10:04:40;;;;;;;34.77;12.30;;;;;;;;;;4930085;29;20388;-69
2023/11/13 10:07:09;;;;;;;40.17;14.67;;;;;;;;;;4936464;29;20015;-69
2023/11/13 10:09:35;;;;;;;38.33;12.80;;;;;;;;;;4944828;29;20054;-69
2023/11/13 10:12:02;;;;;;;34.30;11.77;;;;;;;;;;4942261;29;20189;-69
2023/11/13 10:14:27;;;;;;;30.43;12.37;;;;;;;;;;4941497;29;20610;-68
2023/11/13 10:16:57;;;;;;;35.40;13.63;;;;;;;;;;4948291;29;20051;-69
2023/11/13 10:19:23;;;;;;;39.43;14.10;;;;;;;;;;4947315;29;20377;-69
2023/11/13 10:21:48;;;;;;;25.67;11.33;;;;;;;;;;4943701;29;20042;-69
2023/11/13 10:24:19;;;;;;;29.17;11.43;;;;;;;;;;4924782;29;20027;-68
2023/11/13 10:26:51;;;;;;;36.90;12.95;;;;;;;;;;4912506;29;20027;-69
2023/11/13 10:29:22;;;;;;;28.50;11.43;;;;;;;;;;4938400;29;20019;-69
2023/11/13 10:31:52;;;;;;;36.20;14.00;;;;;;;;;;4941024;29;20035;-69
2023/11/13 10:34:17;;;;;;;27.17;11.53;;;;;;;;;;4944877;29;20293;-68
2023/11/13 10:36:44;;;;;;;38.00;15.30;;;;;;;;;;4948802;29;20027;-68
2023/11/13 10:39:11;;;;;;;33.33;13.30;;;;;;;;;;4947736;29;20023;-68
2023/11/13 10:41:43;;;;;;;42.13;15.50;;;;;;;;;;4944879;29;20361;-69
2023/11/13 10:44:24;;;;;;;37.70;13.73;;;;;;;;;;4941312;29;20023;-68
2023/11/13 10:46:49;;;;;;;45.73;16.03;;;;;;;;;;4942488;29;20058;-69
2023/11/13 10:49:17;;;;;;;35.47;11.30;;;;;;;;;;4947989;29;20441;-69
2023/11/13 10:51:46;;;;;;;42.67;14.57;;;;;;;;;;4947867;29;20183;-69
2023/11/13 10:54:14;;;;;;;45.70;16.50;;;;;;;;;;4934936;29;20024;-69
2023/11/13 10:56:40;;;;;;;36.87;13.60;;;;;;;;;;4928549;29;20409;-68
2023/11/13 10:59:07;;;;;;;40.70;14.63;;;;;;;;;;4929113;29;20031;-69
2023/11/13 11:01:35;;;;;;;36.90;14.27;;;;;;;;;;4929149;29;20039;-69
2023/11/13 11:04:04;;;;;;;43.37;16.17;;;;;;;;;;4929485;29;20035;-68
2023/11/13 11:06:32;;;;;;;40.17;15.27;;;;;;;;;;4926390;29;20024;-68
2023/11/13 11:09:00;;;;;;;35.83;13.63;;;;;;;;;;4929297;29;20023;-68
2023/11/13 11:11:29;;;;;;;28.83;11.13;;;;;;;;;;4940972;29;20039;-68
2023/11/13 11:13:56;;;;;;;34.10;14.00;;;;;;;;;;4928801;29;20288;-68
2023/11/13 11:16:31;;;;;;;49.20;17.27;;;;;;;;;;4939937;29;20166;-68
2023/11/13 11:19:15;;;;;;;47.67;18.53;;;;;;;;;;4946511;29;20019;-68
2023/11/13 11:21:50;;;;;;;52.03;17.37;;;;;;;;;;4947531;29;20523;-68
2023/11/13 11:24:34;;;;;;;39.07;13.83;;;;;;;;;;4944059;29;20100;-68
2023/11/13 11:26:59;;;;;;;47.43;16.47;;;;;;;;;;4928774;29;20421;-69
2023/11/13 11:29:31;;;;;;;24.37;9.27;;;;;;;;;;4928526;29;20024;-68
2023/11/13 11:31:57;;;;;;;37.87;14.57;;;;;;;;;;4928534;29;20044;-69
2023/11/13 11:34:23;;;;;;;43.43;15.83;;;;;;;;;;4932418;29;20025;-71
2023/11/13 11:36:51;;;;;;;36.10;13.77;;;;;;;;;;4937161;29;20031;-69
2023/11/13 11:39:26;;;;;;;39.23;14.60;;;;;;;;;;4942468;29;20022;-69
2023/11/13 11:41:53;;;;;;;41.17;15.03;;;;;;;;;;4940046;29;20114;-68
2023/11/13 11:44:21;;;;;;;48.17;17.33;;;;;;;;;;4946709;29;20034;-68
2023/11/13 11:46:47;;;;;;;37.17;13.73;;;;;;;;;;4936652;29;20043;-69
2023/11/13 11:49:18;;;;;;;44.47;16.93;;;;;;;;;;4928451;29;20027;-68
2023/11/13 11:51:44;;;;;;;47.85;16.98;;;;;;;;;;4946493;29;20055;-68
2023/11/13 11:54:10;;;;;;;33.80;11.67;;;;;;;;;;4944790;29;20383;-69
2023/11/13 11:56:36;;;;;;;44.00;16.57;;;;;;;;;;4944382;29;20019;-69
2023/11/13 11:59:01;;;;;;;21.00;7.97;;;;;;;;;;4943504;29;20038;-68
2023/11/13 12:01:27;;;;;;;29.60;12.20;;;;;;;;;;4946558;28;20023;-68
2023/11/13 12:03:53;;;;;;;43.47;16.43;;;;;;;;;;4930227;29;20028;-69
2023/11/13 12:06:18;;;;;;;27.03;11.93;;;;;;;;;;4939157;29;20373;-67
2023/11/13 12:08:43;;;;;;;23.13;10.53;;;;;;;;;;4940101;28;20073;-68
2023/11/13 12:11:11;;;;;;;31.30;10.00;;;;;;;;;;4942934;29;20035;-67
2023/11/13 12:13:37;;;;;;;21.33;8.50;;;;;;;;;;4945102;29;20024;-68
2023/11/13 12:16:02;;;;;;;34.50;13.73;;;;;;;;;;4946570;29;20023;-67
2023/11/13 12:18:29;;;;;;;37.23;15.50;;;;;;;;;;4940133;29;20169;-68
2023/11/13 12:20:55;;;;;;;28.27;12.00;;;;;;;;;;4943922;29;20078;-68
2023/11/13 12:23:21;;;;;;;31.80;14.07;;;;;;;;;;4946062;29;20522;-67
2023/11/13 12:25:46;;;;;;;29.80;12.87;;;;;;;;;;4940254;29;20211;-67
2023/11/13 12:28:11;;;;;;;25.27;10.67;;;;;;;;;;4940409;29;20066;-68
2023/11/13 12:30:37;;;;;;;25.37;11.63;;;;;;;;;;4941333;29;20045;-67
2023/11/13 12:33:03;;;;;;;29.10;11.93;;;;;;;;;;4942103;29;20531;-67
2023/11/13 12:35:33;;;;;;;35.27;14.50;;;;;;;;;;4940057;29;20023;-68
2023/11/13 12:37:58;;;;;;;19.87;8.83;;;;;;;;;;4947150;29;20192;-68
2023/11/13 12:40:24;;;;;;;23.47;10.73;;;;;;;;;;4936856;29;20504;-67
2023/11/13 12:42:49;;;;;;;25.17;12.03;;;;;;;;;;4945533;29;20043;-66
2023/11/13 12:45:16;;;;;;;25.47;11.13;;;;;;;;;;4945559;29;20023;-68
2023/11/13 12:47:48;;;;;;;24.33;11.40;;;;;;;;;;4944930;29;20025;-69
2023/11/13 12:50:13;;;;;;;20.43;9.13;;;;;;;;;;4935203;29;20011;-68
2023/11/13 12:52:40;;;;;;;24.40;10.80;;;;;;;;;;4941951;29;20392;-68
2023/11/13 12:55:11;;;;;;;23.30;10.93;;;;;;;;;;4946759;29;20034;-69
2023/11/13 12:57:42;;;;;;;22.58;10.82;;;;;;;;;;4944021;29;20042;-68
2023/11/13 13:00:12;;;;;;;21.63;10.03;;;;;;;;;;4932035;29;20039;-68
2023/11/13 13:02:37;;;;;;;20.70;9.37;;;;;;;;;;4909503;29;20032;-73
2023/11/13 13:05:05;;;;;;;20.17;8.97;;;;;;;;;;4908491;29;20027;-68
2023/11/13 13:07:30;;;;;;;21.53;10.07;;;;;;;;;;4909327;29;20084;-68
2023/11/13 13:09:56;;;;;;;22.83;10.03;;;;;;;;;;4925987;29;20066;-68
2023/11/13 13:12:21;;;;;;;18.93;6.97;;;;;;;;;;4935896;29;20023;-68
2023/11/13 13:14:51;;;;;;;21.23;8.73;;;;;;;;;;4946581;29;20504;-67
2023/11/13 13:17:21;;;;;;;15.90;6.93;;;;;;;;;;4945287;29;20388;-68
2023/11/13 13:19:47;;;;;;;22.57;9.50;;;;;;;;;;4942597;28;20038;-67
2023/11/13 13:22:12;;;;;;;20.23;10.33;;;;;;;;;;4943024;29;20383;-68
2023/11/13 13:24:40;;;;;;;21.87;9.87;;;;;;;;;;4926903;29;20020;-68
2023/11/13 13:27:05;;;;;;;17.83;8.67;;;;;;;;;;4934523;29;20058;-67
2023/11/13 13:29:31;;;;;;;13.27;6.20;;;;;;;;;;4949631;29;20511;-67
2023/11/13 13:31:57;;;;;;;16.23;7.53;;;;;;;;;;4946161;29;20041;-68
2023/11/13 13:34:22;;;;;;;13.47;5.40;;;;;;;;;;4943258;29;20035;-69
2023/11/13 13:36:47;;;;;;;15.90;6.90;;;;;;;;;;4943338;29;20303;-68
2023/11/13 13:39:14;;;;;;;13.87;6.50;;;;;;;;;;4950204;29;20086;-68
2023/11/13 13:41:41;;;;;;;6.97;3.43;;;;;;;;;;4939036;29;20051;-71
2023/11/13 13:44:06;;;;;;;7.40;3.57;;;;;;;;;;4930928;29;20449;-68
2023/11/13 13:46:31;;;;;;;12.07;5.77;;;;;;;;;;4936149;29;20094;-69
2023/11/13 13:48:57;;;;;;;7.27;3.63;;;;;;;;;;4950184;29;20112;-68
2023/11/13 13:51:24;;;;;;;10.03;4.83;;;;;;;;;;4943372;29;20019;-68
2023/11/13 13:53:50;;;;;;;7.40;3.97;;;;;;;;;;4941008;29;20031;-71
2023/11/13 13:56:22;;;;;;;11.47;5.20;;;;;;;;;;4946856;29;20050;-69
2023/11/13 13:58:47;;;;;;;6.80;3.72;;;;;;;;;;4938000;29;20488;-68
2023/11/13 14:01:13;;;;;;;9.47;5.03;;;;;;;;;;4947764;28;20269;-68
2023/11/13 14:03:39;;;;;;;10.93;5.37;;;;;;;;;;4934626;29;20023;-68
2023/11/13 14:06:04;;;;;;;9.03;4.27;;;;;;;;;;4943401;29;20027;-69
2023/11/13 14:08:30;;;;;;;10.73;5.13;;;;;;;;;;4947974;29;20030;-68